Craig, CO (81625)

5:19 AM MDT on May 23, 2015 (GMT -0600)
Craig | | Change Station
CLOSE
Current Station
Personal Weather Station
Location: Craig, CO
Elevation: 6322 ft
Nearby Weather Stations

Elev 6322 ft 40.47 °N, 107.56 °W | Updated 15 seconds ago

Partly Cloudy
Partly Cloudy
37.9 °F
Feels Like 32 °F
N
8.1
Wind Variable Wind from WSW
Gusts 9.0 mph

Today
High -- | Low -- °F
--% Chance of Precip.
Yesterday
High -- | Low -- °F
Precip. -- in
5:47 AM 8:27 PM
Waxing Crescent, 29% visible
Pressure 29.94 in
Visibility 10.0 miles
Clouds Clear
Windchill 32 °F
Dew Point 36 °F
Humidity 93%
Rainfall 0.00 in
Snow Depth Not available.
UV 0 out of 12
Pollen 7.50 out of 12
Air Quality Not available.
Flu Activity Sporadic
METAR KCAG 231053Z AUTO 11003KT 10SM CLR 04/02 A3000 RMK AO2 LTG DSNT SW SLP138 T00390017

More Conditions Fewer Conditions

Pressure 29.94 in
Visibility 10.0 miles
Clouds Clear
Windchill 32 °F
Dew Point 36 °F
Humidity 93%
Rainfall 0.00 in
Snow Depth Not available.
UV 0 out of 12
Pollen 7.50 out of 12
Air Quality Not available.
Flu Activity Sporadic
METAR KCAG 231053Z AUTO 11003KT 10SM CLR 04/02 A3000 RMK AO2 LTG DSNT SW SLP138 T00390017

More Conditions Fewer Conditions

10-Day Weather Forecast

Almanac

Astronomy

May. 23, 2015 Rise Set
Actual Time
Civil Twilight
Nautical Twilight
Astronomical Twilight
Moon
Length of Visible Light
Length of Day
Tomorrow will be .
, % of the Moon is Illuminated

Today's Extremes

State Highs State Lows

Community

WunderPhotos

Upload Photos

1,823,409 photos uploaded!

WunderBlogs® & News

Nearby

Air Quality

  Air Quality AQ Index Pollutant
Not available.

Snow Depth

Station Depth Elevation

Earthquake Activity

City Distance Mag. Time & Date
Minimum magnitude displayed is 2.5.

Coastal Water Temperatures

Place Temperature

Stations

Nearby Weather Stations

Station Location Temp. Windchill Dew Point Humidity Wind Precip. Elev Updated Type